Time;durP1;ratioP1;P1;durP2;ratioP2;P2;SDS_P1;SDS_P2;PMS_P1;PMS_P2;Temp;Humidity;BMP_temperature;BMP_pressure;BME280_temperature;BME280_humidity;BME280_pressure;Samples;Min_cycle;Max_cycle;Signal;HPM_P1;HPM_P2
2023/08/18 00:01:19;;;;;;;5.88;3.78;;;;;;;19.63;100.00;96073.00;5095168;28;20051;-70
2023/08/18 00:03:45;;;;;;;3.90;3.60;;;;;;;19.56;100.00;96086.28;5094217;28;20114;-70
2023/08/18 00:06:11;;;;;;;4.20;3.58;;;;;;;19.56;100.00;96083.63;5095409;28;20092;-70
2023/08/18 00:08:36;;;;;;;3.90;3.08;;;;;;;19.55;100.00;96099.81;5094232;28;20099;-70
2023/08/18 00:11:02;;;;;;;4.10;3.75;;;;;;;19.49;100.00;96093.41;5105798;28;20323;-70
2023/08/18 00:13:28;;;;;;;4.15;3.60;;;;;;;19.44;100.00;96098.47;5109634;28;20229;-70
2023/08/18 00:15:53;;;;;;;5.05;3.45;;;;;;;19.40;100.00;96091.84;5096013;28;20103;-70
2023/08/18 00:18:18;;;;;;;3.60;3.30;;;;;;;19.34;100.00;96101.44;5095700;28;20073;-70
2023/08/18 00:20:44;;;;;;;6.82;3.15;;;;;;;19.32;100.00;96096.28;5094445;28;20028;-70
2023/08/18 00:23:09;;;;;;;5.50;3.90;;;;;;;19.26;100.00;96094.38;5108499;28;20476;-70
2023/08/18 00:25:35;;;;;;;3.83;3.40;;;;;;;19.23;100.00;96101.94;5095936;28;20050;-70
2023/08/18 00:28:00;;;;;;;5.97;4.28;;;;;;;19.23;100.00;96091.25;5097042;28;20077;-70
2023/08/18 00:30:25;;;;;;;5.15;3.88;;;;;;;19.21;100.00;96098.63;5103283;28;20030;-70
2023/08/18 00:32:51;;;;;;;7.10;3.78;;;;;;;19.18;100.00;96102.47;5100634;27;20079;-71
2023/08/18 00:35:17;;;;;;;4.82;3.55;;;;;;;19.15;100.00;96095.69;5104425;28;20050;-70
2023/08/18 00:37:44;;;;;;;7.30;3.75;;;;;;;19.10;100.00;96106.06;5093424;28;20024;-70
2023/08/18 00:40:10;;;;;;;3.83;3.53;;;;;;;19.07;100.00;96098.44;5094792;28;20028;-70
2023/08/18 00:42:35;;;;;;;3.85;3.28;;;;;;;19.12;100.00;96095.22;5097379;28;20055;-70
2023/08/18 00:45:01;;;;;;;3.42;3.10;;;;;;;19.03;100.00;96090.00;5095805;28;20023;-70
2023/08/18 00:47:27;;;;;;;3.88;3.45;;;;;;;19.02;100.00;96091.00;5094955;28;20035;-70
2023/08/18 00:49:54;;;;;;;4.78;3.72;;;;;;;18.99;100.00;96088.69;5100792;27;20035;-71
2023/08/18 00:52:20;;;;;;;6.03;4.45;;;;;;;19.00;100.00;96085.00;5098515;28;20036;-71
2023/08/18 00:54:48;;;;;;;4.40;4.00;;;;;;;18.98;100.00;96095.03;5099633;28;20279;-70
2023/08/18 00:57:14;;;;;;;8.38;3.72;;;;;;;18.95;100.00;96094.56;5102943;28;20103;-71
2023/08/18 00:59:39;;;;;;;7.55;4.35;;;;;;;18.90;100.00;96095.13;5095293;28;20063;-70
2023/08/18 01:02:05;;;;;;;4.38;3.38;;;;;;;18.91;100.00;96088.78;5093876;28;20020;-69
2023/08/18 01:04:33;;;;;;;5.22;3.45;;;;;;;18.89;100.00;96099.59;5095636;28;20393;-70
2023/08/18 01:06:59;;;;;;;5.55;3.80;;;;;;;18.89;100.00;96094.28;5094334;28;20023;-70
2023/08/18 01:09:25;;;;;;;4.20;3.83;;;;;;;18.87;100.00;96088.28;5095264;28;20038;-70
2023/08/18 01:12:03;;;;;;;3.67;3.38;;;;;;;18.82;100.00;96096.03;5105167;28;20534;-70
2023/08/18 01:14:37;;;;;;;6.82;3.47;;;;;;;18.75;100.00;96105.78;5094207;28;20039;-70
2023/08/18 01:17:11;;;;;;;10.03;3.83;;;;;;;18.70;100.00;96111.66;5094587;28;20036;-70
2023/08/18 01:19:37;;;;;;;3.80;3.40;;;;;;;18.64;100.00;96115.06;5095033;28;20276;-71
2023/08/18 01:22:06;;;;;;;5.35;3.30;;;;;;;18.64;100.00;96111.56;5109689;28;20050;-70
2023/08/18 01:24:31;;;;;;;3.88;3.58;;;;;;;18.64;100.00;96091.06;5093847;28;20082;-70
2023/08/18 01:26:57;;;;;;;5.30;3.63;;;;;;;18.59;100.00;96107.59;5094975;27;20032;-71
2023/08/18 01:29:23;;;;;;;6.82;3.33;;;;;;;18.57;100.00;96104.28;5093339;28;20066;-70
2023/08/18 01:31:53;;;;;;;5.63;3.63;;;;;;;18.52;100.00;96106.69;5093858;28;20028;-71
2023/08/18 01:34:23;;;;;;;5.82;3.70;;;;;;;18.51;100.00;96104.19;5094629;28;20024;-70
2023/08/18 01:36:51;;;;;;;4.20;3.60;;;;;;;18.46;100.00;96100.25;5094035;28;20028;-70
2023/08/18 01:39:19;;;;;;;4.72;3.17;;;;;;;18.44;100.00;96093.41;5097515;28;20053;-71
2023/08/18 01:41:45;;;;;;;3.70;3.40;;;;;;;18.44;100.00;96099.59;5112748;28;20394;-70
2023/08/18 01:44:14;;;;;;;5.15;3.35;;;;;;;18.47;100.00;96093.09;5095746;28;20027;-70
2023/08/18 01:46:39;;;;;;;4.22;3.83;;;;;;;18.44;100.00;96098.75;5092297;28;20034;-70
2023/08/18 01:49:05;;;;;;;3.90;3.50;;;;;;;18.40;100.00;96100.97;5098901;28;20019;-71
2023/08/18 01:51:30;;;;;;;3.40;3.10;;;;;;;18.39;100.00;96093.16;5104038;28;20016;-70
2023/08/18 01:53:55;;;;;;;3.72;3.53;;;;;;;18.35;100.00;96097.19;5102158;28;20089;-70
2023/08/18 01:56:21;;;;;;;4.10;3.55;;;;;;;18.31;100.00;96100.22;5105055;28;20052;-70
2023/08/18 01:58:46;;;;;;;4.93;3.75;;;;;;;18.26;100.00;96091.94;5094595;28;20098;-70
2023/08/18 02:01:12;;;;;;;5.75;3.55;;;;;;;18.22;100.00;96092.47;5098207;28;20043;-70
2023/08/18 02:03:37;;;;;;;5.00;3.65;;;;;;;18.16;100.00;96092.19;5103542;28;20081;-70
2023/08/18 02:06:03;;;;;;;4.78;3.70;;;;;;;18.16;100.00;96107.34;5108323;28;20491;-70
2023/08/18 02:08:28;;;;;;;4.00;3.60;;;;;;;18.16;100.00;96099.34;5113526;28;20034;-70
2023/08/18 02:11:01;;;;;;;4.57;3.85;;;;;;;18.10;100.00;96097.41;5112555;28;20027;-70
2023/08/18 02:13:26;;;;;;;8.15;4.20;;;;;;;18.03;100.00;96095.47;5093363;28;20548;-70
2023/08/18 02:15:52;;;;;;;4.70;4.20;;;;;;;18.02;100.00;96103.63;5093352;28;20197;-70
2023/08/18 02:18:17;;;;;;;8.02;4.00;;;;;;;18.00;100.00;96100.28;5099734;28;20012;-70
2023/08/18 02:20:42;;;;;;;8.88;4.68;;;;;;;18.02;100.00;96095.63;5113322;28;20027;-70
2023/08/18 02:23:08;;;;;;;4.32;3.83;;;;;;;18.01;100.00;96094.78;5097233;28;20024;-71
2023/08/18 02:25:33;;;;;;;7.30;4.43;;;;;;;18.01;100.00;96105.44;5096524;28;20111;-70
2023/08/18 02:27:58;;;;;;;7.25;3.88;;;;;;;18.04;100.00;96107.78;5101552;28;20032;-70
2023/08/18 02:30:24;;;;;;;8.98;3.90;;;;;;;18.02;100.00;96103.63;5104228;28;20044;-70
2023/08/18 02:32:50;;;;;;;6.93;4.28;;;;;;;17.99;100.00;96104.78;5093646;28;20107;-70
2023/08/18 02:35:15;;;;;;;6.22;3.97;;;;;;;18.00;100.00;96105.63;5092275;28;20044;-70
2023/08/18 02:37:41;;;;;;;7.60;3.83;;;;;;;17.98;100.00;96110.28;5093387;28;20063;-70
2023/08/18 02:40:08;;;;;;;6.85;4.00;;;;;;;17.93;100.00;96107.34;5094847;28;20085;-70
2023/08/18 02:42:35;;;;;;;4.75;3.80;;;;;;;17.94;100.00;96106.34;5106862;28;20031;-70
2023/08/18 02:45:00;;;;;;;4.80;3.83;;;;;;;17.91;100.00;96107.50;5099853;28;20079;-71
2023/08/18 02:47:26;;;;;;;4.43;4.10;;;;;;;17.86;100.00;96117.88;5108044;28;20028;-70
2023/08/18 02:49:52;;;;;;;4.38;4.00;;;;;;;17.83;100.00;96115.56;5103331;27;20036;-70
2023/08/18 02:52:17;;;;;;;4.05;3.75;;;;;;;17.82;100.00;96116.56;5096994;28;20020;-70
2023/08/18 02:54:42;;;;;;;5.45;4.22;;;;;;;17.81;100.00;96125.56;5096694;28;20040;-70
2023/08/18 02:57:08;;;;;;;3.60;3.15;;;;;;;17.81;100.00;96128.22;5106391;28;20035;-70
2023/08/18 02:59:33;;;;;;;6.00;3.53;;;;;;;17.75;100.00;96122.59;5108920;28;20105;-71
2023/08/18 03:01:59;;;;;;;4.78;3.60;;;;;;;17.78;100.00;96123.22;5096928;28;20038;-70
2023/08/18 03:04:24;;;;;;;8.45;3.60;;;;;;;17.73;100.00;96118.47;5098674;28;20023;-70
2023/08/18 03:06:49;;;;;;;3.95;3.60;;;;;;;17.68;100.00;96108.31;5097192;28;20415;-70
2023/08/18 03:09:16;;;;;;;4.50;3.72;;;;;;;17.66;100.00;96109.50;5096963;28;20057;-70
2023/08/18 03:11:42;;;;;;;6.75;4.10;;;;;;;17.61;100.00;96104.72;5116726;28;20027;-70
2023/08/18 03:14:07;;;;;;;4.68;3.63;;;;;;;17.64;100.00;96112.34;5102702;28;20028;-70
2023/08/18 03:16:33;;;;;;;5.38;3.75;;;;;;;17.62;100.00;96106.38;5108908;28;20127;-71
2023/08/18 03:18:59;;;;;;;10.15;8.18;;;;;;;17.56;100.00;96107.06;5096975;28;20036;-70
2023/08/18 03:21:24;;;;;;;6.32;4.78;;;;;;;17.55;100.00;96110.72;5108673;28;20059;-70
2023/08/18 03:23:51;;;;;;;6.43;4.85;;;;;;;17.54;100.00;96107.25;5089332;28;20052;-70
2023/08/18 03:26:16;;;;;;;6.38;4.57;;;;;;;17.53;100.00;96104.75;5109073;27;20042;-70
2023/08/18 03:28:41;;;;;;;8.50;4.15;;;;;;;17.50;100.00;96129.91;5106525;27;20452;-70
2023/08/18 03:31:07;;;;;;;7.07;4.32;;;;;;;17.47;100.00;96117.78;5103210;28;20501;-71
2023/08/18 03:33:33;;;;;;;5.07;3.67;;;;;;;17.46;100.00;96120.59;5121637;27;20034;-71
2023/08/18 03:35:59;;;;;;;6.13;4.57;;;;;;;17.45;100.00;96113.59;5096244;28;20032;-71
2023/08/18 03:38:25;;;;;;;4.95;4.10;;;;;;;17.46;100.00;96113.44;5096038;28;20637;-70
2023/08/18 03:41:01;;;;;;;4.95;3.97;;;;;;;17.49;100.00;96106.13;5099647;28;20023;-70
2023/08/18 03:43:27;;;;;;;5.97;3.58;;;;;;;17.51;100.00;96104.94;5095799;28;20027;-70
2023/08/18 03:45:52;;;;;;;7.07;3.72;;;;;;;17.55;100.00;96108.06;5105739;28;20030;-70
2023/08/18 03:48:18;;;;;;;5.32;3.65;;;;;;;17.55;100.00;96102.75;5100741;28;20087;-71
2023/08/18 03:50:43;;;;;;;4.15;3.75;;;;;;;17.54;100.00;96107.25;5103951;27;20032;-71
2023/08/18 03:53:09;;;;;;;3.85;3.55;;;;;;;17.53;100.00;96112.75;5114557;28;20080;-70
2023/08/18 03:55:34;;;;;;;3.67;3.38;;;;;;;17.49;100.00;96120.25;5101524;28;20032;-70
2023/08/18 03:57:59;;;;;;;4.25;3.55;;;;;;;17.47;100.00;96107.13;5094406;28;20060;-70
2023/08/18 04:00:25;;;;;;;4.70;3.40;;;;;;;17.44;100.00;96125.25;5095455;28;20088;-70
2023/08/18 04:02:50;;;;;;;4.43;3.45;;;;;;;17.46;100.00;96121.44;5108781;28;20024;-70
2023/08/18 04:05:16;;;;;;;4.28;3.83;;;;;;;17.46;100.00;96120.59;5095615;28;20023;-70
2023/08/18 04:07:41;;;;;;;5.55;3.63;;;;;;;17.42;100.00;96122.78;5095093;28;20024;-70
2023/08/18 04:10:07;;;;;;;4.13;3.63;;;;;;;17.36;100.00;96120.84;5104647;28;20058;-70
2023/08/18 04:12:33;;;;;;;6.22;3.85;;;;;;;17.37;100.00;96125.16;5113321;28;20102;-70
2023/08/18 04:14:58;;;;;;;4.90;4.10;;;;;;;17.31;100.00;96118.69;5095496;28;20170;-70
2023/08/18 04:17:24;;;;;;;6.95;6.22;;;;;;;17.29;100.00;96133.16;5107538;28;20024;-70
2023/08/18 04:19:49;;;;;;;8.82;6.72;;;;;;;17.30;100.00;96126.84;5095083;28;20024;-70
2023/08/18 04:22:14;;;;;;;5.60;5.07;;;;;;;17.23;100.00;96124.03;5093622;28;20055;-71
2023/08/18 04:24:40;;;;;;;8.48;4.30;;;;;;;17.20;100.00;96134.22;5103005;28;20027;-71
2023/08/18 04:27:05;;;;;;;6.80;4.50;;;;;;;17.14;100.00;96123.25;5114626;27;20087;-70
2023/08/18 04:29:31;;;;;;;5.72;3.90;;;;;;;17.13;100.00;96120.75;5094933;28;20046;-70
2023/08/18 04:31:56;;;;;;;10.43;3.60;;;;;;;17.10;100.00;96126.44;5094315;28;20133;-70
2023/08/18 04:34:21;;;;;;;7.93;4.32;;;;;;;17.04;100.00;96133.25;5123035;27;20478;-71
2023/08/18 04:36:47;;;;;;;7.38;4.10;;;;;;;17.07;100.00;96127.59;5100337;28;20070;-71
2023/08/18 04:39:13;;;;;;;4.32;3.92;;;;;;;17.09;100.00;96124.78;5097139;28;20020;-70
2023/08/18 04:41:38;;;;;;;5.05;3.95;;;;;;;17.12;100.00;96129.75;5094897;28;20053;-70
2023/08/18 04:44:04;;;;;;;6.40;4.20;;;;;;;17.12;100.00;96129.75;5094624;28;20103;-71
2023/08/18 04:46:30;;;;;;;10.65;4.13;;;;;;;17.09;100.00;96141.53;5094400;28;20020;-70
2023/08/18 04:48:56;;;;;;;4.25;3.60;;;;;;;17.04;100.00;96144.75;5097568;27;20031;-70
2023/08/18 04:51:22;;;;;;;5.45;4.15;;;;;;;17.01;100.00;96139.75;5108371;28;20069;-70
2023/08/18 04:53:47;;;;;;;6.45;4.40;;;;;;;17.00;100.00;96153.22;5096417;28;20028;-70
2023/08/18 04:56:13;;;;;;;7.03;4.38;;;;;;;17.01;100.00;96153.03;5094720;28;20043;-70
2023/08/18 04:58:38;;;;;;;6.38;3.97;;;;;;;17.02;100.00;96152.06;5094553;28;20028;-70
2023/08/18 05:01:04;;;;;;;10.00;4.20;;;;;;;17.01;100.00;96138.94;5093343;28;20504;-70
2023/08/18 05:03:30;;;;;;;11.02;4.10;;;;;;;17.03;100.00;96136.91;5093992;28;20031;-70
2023/08/18 05:05:57;;;;;;;4.32;3.90;;;;;;;17.07;100.00;96137.41;5094226;28;20028;-70
2023/08/18 05:08:22;;;;;;;5.72;4.07;;;;;;;17.07;100.00;96138.22;5099319;27;20036;-70
2023/08/18 05:10:48;;;;;;;7.05;4.28;;;;;;;17.03;100.00;96137.75;5093414;28;20083;-70
2023/08/18 05:13:13;;;;;;;4.78;4.25;;;;;;;17.02;100.00;96132.59;5107103;28;20027;-70
2023/08/18 05:15:39;;;;;;;10.60;3.95;;;;;;;17.02;100.00;96141.44;5093296;28;20074;-70
2023/08/18 05:18:04;;;;;;;10.60;3.85;;;;;;;17.06;100.00;96146.41;5107442;28;20016;-71
2023/08/18 05:20:30;;;;;;;6.03;4.22;;;;;;;17.08;100.00;96153.19;5094092;28;20024;-70
2023/08/18 05:22:55;;;;;;;5.30;4.25;;;;;;;17.09;100.00;96157.50;5101903;28;20024;-70
2023/08/18 05:25:21;;;;;;;5.50;3.95;;;;;;;17.10;100.00;96158.34;5094252;28;20020;-70
2023/08/18 05:27:47;;;;;;;8.73;4.13;;;;;;;17.09;100.00;96157.50;5113236;27;20027;-70
2023/08/18 05:30:13;;;;;;;7.82;4.35;;;;;;;17.12;100.00;96161.66;5092212;28;20073;-70
2023/08/18 05:32:39;;;;;;;8.15;3.90;;;;;;;17.15;100.00;96162.16;5102129;28;20027;-70
2023/08/18 05:35:05;;;;;;;12.30;4.30;;;;;;;17.21;100.00;96159.81;5105479;27;20557;-70
2023/08/18 05:37:30;;;;;;;6.90;3.80;;;;;;;17.21;100.00;96151.81;5102094;28;20020;-70
2023/08/18 05:39:56;;;;;;;7.32;4.65;;;;;;;17.21;100.00;96162.47;5113158;28;20057;-70
2023/08/18 05:42:21;;;;;;;7.70;4.03;;;;;;;17.26;100.00;96162.78;5092612;28;20469;-70
2023/08/18 05:44:47;;;;;;;9.82;4.47;;;;;;;17.32;100.00;96164.75;5095037;28;20024;-70
2023/08/18 05:47:12;;;;;;;12.05;4.38;;;;;;;17.40;100.00;96154.06;5105215;28;20024;-70
2023/08/18 05:49:38;;;;;;;7.13;4.28;;;;;;;17.42;100.00;96165.38;5104802;28;20068;-70
2023/08/18 05:52:04;;;;;;;9.52;4.93;;;;;;;17.42;100.00;96173.34;5102335;28;20028;-70
2023/08/18 05:54:29;;;;;;;9.05;4.55;;;;;;;17.41;100.00;96163.72;5093513;28;20028;-70
2023/08/18 05:56:54;;;;;;;11.55;4.70;;;;;;;17.40;100.00;96158.56;5103243;28;20437;-70
2023/08/18 05:59:20;;;;;;;12.68;5.05;;;;;;;17.44;100.00;96170.50;5097579;28;20023;-70
2023/08/18 06:01:45;;;;;;;17.80;5.40;;;;;;;17.49;100.00;96162.00;5092677;28;20653;-70
2023/08/18 06:04:11;;;;;;;12.18;5.75;;;;;;;17.52;100.00;96156.34;5100446;28;20057;-70
2023/08/18 06:06:37;;;;;;;8.57;5.00;;;;;;;17.50;100.00;96161.00;5100489;28;20040;-70
2023/08/18 06:09:03;;;;;;;11.82;4.90;;;;;;;17.52;100.00;96161.66;5093462;28;20123;-70
2023/08/18 06:11:28;;;;;;;10.25;5.20;;;;;;;17.65;100.00;96167.25;5104400;28;20536;-70
2023/08/18 06:13:54;;;;;;;5.85;4.30;;;;;;;17.79;100.00;96155.03;5093598;28;20489;-69
2023/08/18 06:16:19;;;;;;;10.00;4.38;;;;;;;17.93;100.00;96160.59;5097868;28;20091;-70
2023/08/18 06:18:44;;;;;;;13.18;4.47;;;;;;;18.07;100.00;96151.06;5096177;28;20065;-70
2023/08/18 06:21:10;;;;;;;9.35;4.22;;;;;;;18.25;100.00;96145.41;5105050;28;20028;-70
2023/08/18 06:23:36;;;;;;;7.07;4.07;;;;;;;18.44;100.00;96136.06;5097624;28;20496;-70
2023/08/18 06:26:01;;;;;;;5.28;3.90;;;;;;;18.61;100.00;96134.09;5102557;27;20020;-69
2023/08/18 06:28:26;;;;;;;5.68;3.80;;;;;;;18.80;100.00;96127.41;5125037;27;20127;-70
2023/08/18 06:30:52;;;;;;;6.13;3.90;;;;;;;18.97;100.00;96129.88;5102622;28;20035;-69
2023/08/18 06:33:17;;;;;;;6.30;4.32;;;;;;;19.16;100.00;96128.53;5123542;27;20054;-69
2023/08/18 06:35:43;;;;;;;7.75;3.83;;;;;;;19.40;100.00;96129.22;5106124;27;20751;-70
2023/08/18 06:38:08;;;;;;;4.70;3.80;;;;;;;19.61;100.00;96125.78;5095940;28;20028;-69
2023/08/18 06:40:33;;;;;;;22.45;4.60;;;;;;;19.79;100.00;96120.00;5097554;28;20103;-70
2023/08/18 06:42:59;;;;;;;9.05;4.40;;;;;;;19.91;100.00;96115.03;5097228;28;20093;-69
2023/08/18 06:45:24;;;;;;;4.90;3.72;;;;;;;20.01;100.00;96138.75;5097044;28;20400;-69
2023/08/18 06:47:50;;;;;;;5.72;3.90;;;;;;;20.00;100.00;96137.91;5097353;28;20024;-69
2023/08/18 06:50:15;;;;;;;8.15;3.63;;;;;;;20.08;100.00;96134.28;5103621;28;20491;-69
2023/08/18 06:52:40;;;;;;;9.27;3.88;;;;;;;20.13;100.00;96128.38;5102291;28;20373;-69
2023/08/18 06:55:07;;;;;;;4.15;3.60;;;;;;;20.27;100.00;96110.63;5096711;28;20036;-69
2023/08/18 06:57:32;;;;;;;15.32;4.43;;;;;;;20.54;100.00;96114.31;5097874;28;20031;-69
2023/08/18 06:59:58;;;;;;;31.77;6.72;;;;;;;20.77;100.00;96121.28;5112645;28;20023;-69
2023/08/18 07:02:23;;;;;;;21.95;6.65;;;;;;;20.94;100.00;96105.75;5115738;28;20031;-70
2023/08/18 07:04:49;;;;;;;31.73;6.82;;;;;;;21.11;100.00;96108.94;5100363;28;20080;-69
2023/08/18 07:07:15;;;;;;;19.58;5.72;;;;;;;21.36;100.00;96115.63;5096994;28;20607;-69
2023/08/18 07:09:40;;;;;;;11.20;5.40;;;;;;;21.61;100.00;96094.50;5096787;28;20405;-69
2023/08/18 07:12:06;;;;;;;8.57;4.00;;;;;;;21.96;100.00;96091.72;5096737;28;20028;-69
2023/08/18 07:14:31;;;;;;;5.22;3.72;;;;;;;22.31;100.00;96080.81;5096545;28;20565;-69
2023/08/18 07:16:56;;;;;;;4.65;3.70;;;;;;;22.61;100.00;96061.59;5096789;28;20039;-69
2023/08/18 07:19:22;;;;;;;6.18;3.35;;;;;;;22.90;100.00;96055.97;5100209;28;21049;-69
2023/08/18 07:21:48;;;;;;;6.80;3.25;;;;;;;23.37;100.00;96053.16;5096439;28;20031;-69
2023/08/18 07:24:14;;;;;;;39.08;6.32;;;;;;;23.72;100.00;96041.97;5095198;28;20043;-69
2023/08/18 07:26:39;;;;;;;24.35;6.22;;;;;;;24.10;100.00;96028.72;5108644;27;20034;-69
2023/08/18 07:29:04;;;;;;;7.22;4.32;;;;;;;24.26;100.00;96025.47;5103593;28;20435;-69
2023/08/18 07:31:30;;;;;;;7.75;3.65;;;;;;;24.40;100.00;96018.09;5102144;28;20032;-68
2023/08/18 07:33:57;;;;;;;4.97;3.13;;;;;;;24.78;100.00;96024.34;5112697;27;20035;-69
2023/08/18 07:36:22;;;;;;;5.15;3.33;;;;;;;24.95;100.00;96013.00;5098953;28;20028;-68
2023/08/18 07:38:48;;;;;;;5.75;3.00;;;;;;;25.11;100.00;96014.25;5094794;28;20031;-69
2023/08/18 07:41:13;;;;;;;5.82;3.45;;;;;;;25.24;100.00;96015.94;5097524;28;20416;-68
2023/08/18 07:43:39;;;;;;;5.80;2.67;;;;;;;25.55;100.00;96004.16;5098514;28;20023;-68
2023/08/18 07:46:05;;;;;;;4.13;3.20;;;;;;;25.96;100.00;96003.53;5095948;28;20020;-69
2023/08/18 07:48:30;;;;;;;6.32;3.20;;;;;;;26.45;100.00;96003.38;5100182;28;20045;-68
2023/08/18 07:50:56;;;;;;;8.68;3.08;;;;;;;26.42;100.00;96001.94;5102695;27;20472;-68
2023/08/18 07:53:22;;;;;;;8.30;3.90;;;;;;;26.65;100.00;95988.69;5096076;28;20020;-68
2023/08/18 07:55:47;;;;;;;3.58;3.00;;;;;;;26.92;100.00;95996.28;5099839;28;20631;-68
2023/08/18 07:58:12;;;;;;;5.03;3.30;;;;;;;26.90;100.00;95996.50;5095756;28;20024;-69
2023/08/18 08:00:38;;;;;;;4.72;2.95;;;;;;;26.68;100.00;96002.50;5109210;28;20023;-68
2023/08/18 08:03:03;;;;;;;9.02;3.30;;;;;;;26.84;100.00;95998.25;5098010;28;20031;-69
2023/08/18 08:05:29;;;;;;;3.95;2.80;;;;;;;27.23;100.00;95996.88;5096180;28;20095;-69
2023/08/18 08:07:54;;;;;;;7.72;3.28;;;;;;;27.48;100.00;95999.25;5107960;28;20035;-68
2023/08/18 08:10:20;;;;;;;7.18;3.17;;;;;;;27.91;100.00;95996.22;5104570;28;20023;-68
2023/08/18 08:12:47;;;;;;;6.18;3.28;;;;;;;27.97;100.00;95996.06;5106153;28;20024;-68
2023/08/18 08:15:14;;;;;;;7.35;3.22;;;;;;;28.08;100.00;95993.50;5095469;28;20031;-69
2023/08/18 08:17:40;;;;;;;4.65;2.63;;;;;;;28.39;100.00;95991.28;5107691;28;20038;-69
2023/08/18 08:20:16;;;;;;;6.72;3.20;;;;;;;28.37;100.00;95991.56;5101928;28;20032;-69
2023/08/18 08:22:43;;;;;;;4.88;2.75;;;;;;;28.58;100.00;95994.56;5102588;28;20027;-69
2023/08/18 08:25:10;;;;;;;6.30;2.72;;;;;;;28.58;100.00;95984.53;5113864;28;20087;-69
2023/08/18 08:27:35;;;;;;;4.53;2.80;;;;;;;28.48;100.00;95984.41;5113863;27;20077;-69
2023/08/18 08:30:01;;;;;;;6.25;3.00;;;;;;;28.39;100.00;95986.72;5094874;28;20060;-69
2023/08/18 08:32:26;;;;;;;6.95;3.30;;;;;;;28.34;100.00;95978.53;5102520;27;20028;-69
2023/08/18 08:34:52;;;;;;;11.07;2.90;;;;;;;28.55;100.00;95985.03;5106201;27;20026;-69
2023/08/18 08:37:18;;;;;;;5.50;3.00;;;;;;;28.83;100.00;95977.03;5112976;28;20034;-69
2023/08/18 08:39:44;;;;;;;3.30;2.80;;;;;;;29.11;100.00;95976.00;5100716;28;20040;-69
2023/08/18 08:42:10;;;;;;;5.18;3.03;;;;;;;29.15;100.00;95970.88;5095008;28;20024;-69
2023/08/18 08:44:36;;;;;;;3.92;2.78;;;;;;;29.24;100.00;95968.53;5095371;28;20024;-68
2023/08/18 08:47:02;;;;;;;7.88;2.60;;;;;;;29.45;100.00;95965.00;5097893;28;20055;-69
2023/08/18 08:49:32;;;;;;;3.33;2.40;;;;;;;29.43;100.00;95971.78;5097587;28;20073;-69
2023/08/18 08:52:09;;;;;;;7.80;3.05;;;;;;;29.57;100.00;95967.56;5097307;28;20019;-69
2023/08/18 08:54:46;;;;;;;5.40;2.85;;;;;;;29.38;100.00;95967.06;5093538;28;20032;-68
2023/08/18 08:57:13;;;;;;;5.38;3.03;;;;;;;29.51;100.00;95967.75;5093426;28;20169;-69
2023/08/18 08:59:39;;;;;;;6.97;3.00;;;;;;;29.60;100.00;95966.22;5094713;28;20043;-68
2023/08/18 09:02:04;;;;;;;6.90;2.88;;;;;;;29.81;100.00;95955.56;5098996;28;20032;-68
2023/08/18 09:04:30;;;;;;;3.88;2.70;;;;;;;30.01;100.00;95965.75;5092954;28;20052;-69
2023/08/18 09:06:56;;;;;;;5.50;2.83;;;;;;;29.98;100.00;95968.97;5094609;28;20034;-69
2023/08/18 09:09:22;;;;;;;7.65;3.08;;;;;;;30.18;100.00;95968.38;5094890;28;20019;-68
2023/08/18 09:11:47;;;;;;;2.97;2.60;;;;;;;30.51;100.00;95968.28;5102709;28;20038;-69
2023/08/18 09:14:14;;;;;;;5.72;3.35;;;;;;;30.59;100.00;95957.72;5106794;28;20027;-69
2023/08/18 09:16:41;;;;;;;5.50;3.08;;;;;;;31.01;100.00;95963.38;5094476;28;20034;-69
2023/08/18 09:19:11;;;;;;;2.58;2.38;;;;;;;30.97;100.00;95962.28;5094041;28;20058;-68
2023/08/18 09:21:36;;;;;;;5.53;2.67;;;;;;;30.86;100.00;95959.53;5103199;28;20103;-69
2023/08/18 09:24:02;;;;;;;3.90;2.70;;;;;;;30.95;100.00;95959.84;5100456;28;20063;-69
2023/08/18 09:26:27;;;;;;;4.47;2.67;;;;;;;31.08;100.00;95950.38;5117146;27;20022;-69
2023/08/18 09:28:53;;;;;;;4.85;2.95;;;;;;;31.30;100.00;95952.09;5113024;27;20190;-68
2023/08/18 09:31:19;;;;;;;2.85;2.50;;;;;;;31.39;100.00;95949.63;5096128;28;20154;-69
2023/08/18 09:33:45;;;;;;;6.07;2.95;;;;;;;31.37;100.00;95946.34;5114580;27;20073;-69
2023/08/18 09:36:14;;;;;;;5.45;2.60;;;;;;;31.20;100.00;95946.59;5103033;28;20066;-68
2023/08/18 09:38:43;;;;;;;3.88;2.22;;;;;;;31.01;100.00;95942.44;5098539;28;20038;-69
2023/08/18 09:41:09;;;;;;;3.65;2.05;;;;;;;30.65;100.00;95936.06;5094264;28;20024;-69
2023/08/18 09:43:38;;;;;;;3.55;2.50;;;;;;;30.40;100.00;95938.34;5094125;28;20027;-68
2023/08/18 09:46:06;;;;;;;4.80;2.50;;;;;;;30.08;100.00;95938.41;5095927;28;20076;-69
2023/08/18 09:48:39;;;;;;;4.38;2.25;;;;;;;29.92;100.00;95940.19;5106211;28;20070;-69
2023/08/18 09:51:07;;;;;;;7.27;2.93;;;;;;;29.90;100.00;95945.84;5098499;28;20115;-69
2023/08/18 09:53:33;;;;;;;4.00;2.42;;;;;;;30.06;100.00;95937.88;5093719;28;20481;-69
2023/08/18 09:56:16;;;;;;;4.78;2.60;;;;;;;30.46;100.00;95936.50;5093780;28;20046;-69
2023/08/18 09:58:57;;;;;;;4.57;2.35;;;;;;;30.32;100.00;95936.13;5093821;28;20480;-69
2023/08/18 10:01:25;;;;;;;4.10;2.60;;;;;;;30.27;100.00;95927.94;5097965;28;20034;-68
2023/08/18 10:03:53;;;;;;;8.23;3.08;;;;;;;30.75;100.00;95930.66;5093482;28;20438;-69
2023/08/18 10:06:18;;;;;;;3.13;2.60;;;;;;;30.78;100.00;95924.69;5080310;28;20032;-69
2023/08/18 10:08:44;;;;;;;3.50;2.65;;;;;;;31.04;100.00;95921.25;5092606;28;20127;-69
2023/08/18 10:11:10;;;;;;;11.82;2.63;;;;;;;31.52;100.00;95916.47;5105785;28;20108;-68
2023/08/18 10:13:37;;;;;;;5.70;2.67;;;;;;;31.50;100.00;95913.22;5094242;28;20039;-68
2023/08/18 10:16:05;;;;;;;6.55;2.88;;;;;;;31.42;100.00;95906.41;5096549;28;20043;-68
2023/08/18 10:18:31;;;;;;;8.65;2.90;;;;;;;31.26;100.00;95904.72;5092147;28;20024;-68
2023/08/18 10:20:57;;;;;;;6.05;2.65;;;;;;;31.26;100.00;95907.47;5093336;28;20035;-68
2023/08/18 10:23:24;;;;;;;6.55;2.63;;;;;;;31.16;100.00;95898.19;5104020;28;20484;-68
2023/08/18 10:25:51;;;;;;;3.90;2.70;;;;;;;31.43;100.00;95902.59;5107469;28;20024;-68
2023/08/18 10:28:19;;;;;;;5.70;2.22;;;;;;;31.99;100.00;95903.72;5094942;28;20101;-68
2023/08/18 10:31:04;;;;;;;3.45;2.60;;;;;;;32.44;100.00;95898.44;5094911;28;20041;-68
2023/08/18 10:33:35;;;;;;;5.68;2.50;;;;;;;32.51;100.00;95892.69;5114344;28;20035;-68
2023/08/18 10:36:03;;;;;;;7.75;2.67;;;;;;;32.60;100.00;95892.13;5110997;28;20016;-68
2023/08/18 10:38:29;;;;;;;4.55;2.60;;;;;;;32.71;100.00;95896.44;5099854;28;20031;-68
2023/08/18 10:40:55;;;;;;;2.55;2.33;;;;;;;32.55;100.00;95888.31;5102505;28;20032;-68
2023/08/18 10:43:24;;;;;;;2.78;2.13;;;;;;;32.80;100.00;95889.31;5097885;28;20661;-68
2023/08/18 10:45:51;;;;;;;4.00;2.47;;;;;;;32.89;100.00;95881.38;5098077;28;20050;-68
2023/08/18 10:48:16;;;;;;;2.92;2.50;;;;;;;32.91;100.00;95883.84;5095103;28;20032;-68
2023/08/18 10:50:44;;;;;;;3.72;2.70;;;;;;;32.89;100.00;95880.59;5103618;28;20035;-68
2023/08/18 10:53:12;;;;;;;2.72;2.33;;;;;;;32.72;100.00;95884.44;5098042;28;20031;-67
2023/08/18 10:55:38;;;;;;;4.40;2.47;;;;;;;32.97;100.00;95875.34;5101380;28;20057;-68
2023/08/18 10:58:04;;;;;;;4.82;2.70;;;;;;;33.27;100.00;95868.06;5098378;28;20454;-68
2023/08/18 11:00:32;;;;;;;4.60;2.38;;;;;;;33.32;100.00;95861.78;5101322;28;20032;-68
2023/08/18 11:02:57;;;;;;;3.83;2.47;;;;;;;33.20;100.00;95853.13;5102718;28;20487;-68
2023/08/18 11:05:23;;;;;;;9.60;2.60;;;;;;;33.69;100.00;95854.13;5103172;28;20031;-68
2023/08/18 11:07:51;;;;;;;6.00;2.85;;;;;;;33.85;100.00;95847.44;5101958;28;20036;-67
2023/08/18 11:10:21;;;;;;;4.43;2.65;;;;;;;34.00;100.00;95849.22;5114558;28;20102;-68
2023/08/18 11:12:49;;;;;;;4.95;2.20;;;;;;;34.02;100.00;95842.66;5099810;28;20028;-67
2023/08/18 11:15:18;;;;;;;4.82;2.40;;;;;;;33.68;100.00;95842.38;5096522;28;20028;-67
2023/08/18 11:17:43;;;;;;;3.53;2.30;;;;;;;33.30;100.00;95847.59;5100974;28;20038;-67
2023/08/18 11:20:13;;;;;;;5.90;2.17;;;;;;;32.98;100.00;95851.63;5104825;28;20023;-68